Bei Facebook empfehlenBei Twitter postenGoogle plusPinterest

Das Wetter im Erzgebirge am 23.03.2015

Wetter und Klima am 23.03.2015 Holzhau im Erzgebirge (630m ü.NN)
Letzte gemessene Temperatur und Uhrzeit der Messung23:45:00 Uhr-0.70 °C
Temperatur (Maximum / Höchstwert) und Uhrzeit der Messung14:15:00 Uhr11.90 °C
Temperatur (Minimum / Tiefstwert) und Uhrzeit der Messung00:15:00-7.10 °C
Errechneter Absolutwert der Temperaturschwankungen zwischen Tmin und Tmax des Tages19.00 K
Errechnete Tagesmitteltemperatur1.79271 °C
Gesamt - Niederschlag des Tages (in flüssiger Form)0.00 Liter / m²
Luftdruck (Maximum / Höchstwert) und Zeitpunkt der Messung00:00:00 Uhr1018.90 hPa
Luftdruck (Minimum / Tiefstwert) und Zeitpunkt der Messung23:45:00 Uhr1010.10 hPa
Errechneter Absolutwert der Luftdruckschwankungen des Tages8.80 hPa
Höchste gemessene Windgeschwindigkeit und Uhrzeit der Messung14:45:00 Uhr3.96 km/h
Errechnete Windhäufigkeit in Relation zu den Messwerten des Tages1.04167 %
Niedrigste Windkühle (Windchill) und Zeitpunkt der Messung00:15:00 Uhr-7.10 °C
Taupunkt (Maximum / Höchstwert) und Uhrzeit der Messung12:45:00 Uhr3.00 °C
Taupunkt (Minimum / Tiefstwert) und Uhrzeit der Messung00:15:00-8.80 °C
Anzahl der automatisch eingelesenen Messwerte 96

Detaillierte Wetter- und Klima- Messwerte für den 23.03.2015 in Holzhau im Erzgebirge (630m ü.NN)
ZeitTemperaturLuftdruckRel. LuftfeuchteWindWindrichtungWindchillTaupunktNiederschlag l/m²
23:45:00-0.70 °C1010.10 hPa81.00 %-3.90 °C 
23:30:00-0.20 °C1010.30 hPa81.00 %-3.40 °C 
23:15:000.10 °C1010.40 hPa82.00 %-2.60 °C 
23:00:000.20 °C1010.80 hPa81.00 %-2.70 °C 
22:45:000.40 °C1010.70 hPa81.00 %-2.50 °C 
22:30:000.50 °C1010.70 hPa82.00 %-2.20 °C 
22:15:000.10 °C1010.70 hPa82.00 %-2.60 °C 
22:00:000.10 °C1010.70 hPa82.00 %-2.60 °C 
21:45:00-0.20 °C1010.80 hPa83.00 %-3.00 °C 
21:30:00-0.60 °C1010.70 hPa82.00 %-3.60 °C 
21:15:00-0.90 °C1010.80 hPa82.00 %-3.90 °C 
21:00:00-1.10 °C1010.60 hPa81.00 %-4.30 °C 
20:45:00-0.90 °C1010.80 hPa79.00 %-4.50 °C 
20:30:00-0.60 °C1010.80 hPa78.00 %-4.30 °C 
20:15:00-0.20 °C1010.70 hPa78.00 %-4.00 °C 
20:00:000.00 °C1010.70 hPa78.00 %-3.80 °C 
19:45:000.10 °C1010.60 hPa76.00 %-3.60 °C 
19:30:000.40 °C1010.80 hPa75.00 %-3.50 °C 
19:15:000.80 °C1010.90 hPa73.00 %-3.50 °C 
19:00:001.50 °C1010.80 hPa70.00 %-3.40 °C 
18:45:002.60 °C1010.90 hPa68.00 %-2.70 °C 
18:30:003.90 °C1011.10 hPa66.00 %-1.90 °C 
18:15:005.10 °C1011.20 hPa63.00 %-1.30 °C 
18:00:006.20 °C1011.20 hPa60.00 %-1.00 °C 
17:45:007.30 °C1011.40 hPa58.00 %-0.40 °C 
17:30:008.30 °C1011.40 hPa57.00 %0.30 °C 
17:15:009.10 °C1011.60 hPa55.00 %0.60 °C 
17:00:009.90 °C1011.80 hPa53.00 %0.80 °C 
16:45:0010.60 °C1011.80 hPa52.00 %1.20 °C 
16:30:0011.20 °C1012.00 hPa51.00 %1.50 °C 
16:15:0011.20 °C1012.10 hPa51.00 %1.50 °C 
16:00:0011.60 °C1012.40 hPa50.00 %1.50 °C 
15:45:0011.60 °C1012.40 hPa50.00 %1.50 °C 
15:30:0011.60 °C1012.60 hPa51.00 %1.80 °C 
15:15:0011.40 °C1012.80 hPa51.00 %1.60 °C 
15:00:0011.40 °C1013.00 hPa52.00 %1.90 °C 
14:45:0011.20 °C1013.00 hPa52.00 %3.96 km/hSSW11.20 °C1.70 °C 
14:30:0011.30 °C1013.20 hPa52.00 %1.80 °C 
14:15:0011.90 °C1013.20 hPa52.00 %2.40 °C 
14:00:0011.60 °C1013.20 hPa52.00 %2.10 °C 
13:45:0011.20 °C1013.30 hPa54.00 %2.20 °C 
13:30:0011.20 °C1013.40 hPa55.00 %2.50 °C 
13:15:0011.10 °C1013.50 hPa57.00 %2.90 °C 
13:00:0010.60 °C1013.60 hPa58.00 %2.70 °C 
12:45:0010.40 °C1013.80 hPa60.00 %3.00 °C 
12:30:009.90 °C1014.00 hPa61.00 %2.70 °C 
12:15:009.60 °C1014.20 hPa62.00 %2.70 °C 
12:00:009.10 °C1014.50 hPa64.00 %2.70 °C 
11:45:008.90 °C1014.50 hPa64.00 %2.50 °C 
11:30:008.60 °C1014.80 hPa66.00 %2.60 °C 
11:15:008.30 °C1015.00 hPa68.00 %2.80 °C 
11:00:008.10 °C1015.10 hPa70.00 %3.00 °C 
10:45:007.50 °C1015.20 hPa73.00 %3.00 °C 
10:30:006.80 °C1015.40 hPa75.00 %2.70 °C 
10:15:006.20 °C1015.30 hPa78.00 %2.70 °C 
10:00:005.60 °C1015.60 hPa81.00 %2.60 °C 
09:45:004.90 °C1015.60 hPa86.00 %2.80 °C 
09:30:003.90 °C1015.50 hPa89.00 %2.30 °C 
09:15:002.90 °C1015.50 hPa90.00 %1.40 °C 
09:00:001.90 °C1015.60 hPa91.00 %0.60 °C 
08:45:000.90 °C1015.80 hPa91.00 %-0.40 °C 
08:30:00-0.10 °C1016.00 hPa92.00 %-1.40 °C 
08:15:00-1.10 °C1016.00 hPa91.00 %-2.50 °C 
08:00:00-2.10 °C1016.00 hPa92.00 %-3.40 °C 
07:45:00-2.90 °C1016.10 hPa91.00 %-4.30 °C 
07:30:00-3.60 °C1015.90 hPa91.00 %-5.00 °C 
07:15:00-4.20 °C1016.10 hPa91.00 %-5.60 °C 
07:00:00-4.60 °C1016.10 hPa91.00 %-6.00 °C 
06:45:00-4.70 °C1016.10 hPa91.00 %-6.10 °C 
06:30:00-4.90 °C1015.90 hPa90.00 %-6.50 °C 
06:15:00-5.10 °C1016.00 hPa90.00 %-6.60 °C 
06:00:00-5.00 °C1016.10 hPa90.00 %-6.60 °C 
05:45:00-5.00 °C1016.10 hPa90.00 %-6.60 °C 
05:30:00-5.10 °C1016.10 hPa90.00 %-6.60 °C 
05:15:00-5.20 °C1016.10 hPa90.00 %-6.70 °C 
05:00:00-5.30 °C1016.10 hPa90.00 %-6.80 °C 
04:45:00-5.40 °C1016.10 hPa90.00 %-6.90 °C 
04:30:00-5.60 °C1016.40 hPa90.00 %-7.10 °C 
04:15:00-5.60 °C1016.40 hPa89.00 %-7.30 °C 
04:00:00-5.50 °C1016.50 hPa89.00 %-7.20 °C 
03:45:00-5.40 °C1016.80 hPa89.00 %-7.10 °C 
03:30:00-5.30 °C1016.90 hPa89.00 %-7.00 °C 
03:15:00-5.10 °C1017.00 hPa89.00 %-6.80 °C 
03:00:00-5.10 °C1017.30 hPa89.00 %-6.80 °C 
02:45:00-5.00 °C1017.40 hPa89.00 %-6.70 °C 
02:30:00-5.10 °C1017.40 hPa89.00 %-6.80 °C 
02:15:00-5.20 °C1017.80 hPa89.00 %-6.90 °C 
02:00:00-5.10 °C1017.60 hPa89.00 %-6.80 °C 
01:45:00-5.20 °C1017.70 hPa90.00 %-6.70 °C 
01:30:00-5.60 °C1018.00 hPa90.00 %-7.10 °C 
01:15:00-6.10 °C1017.80 hPa90.00 %-7.60 °C 
01:00:00-6.40 °C1017.90 hPa89.00 %-8.10 °C 
00:45:00-6.80 °C1018.10 hPa89.00 %-8.50 °C 
00:30:00-6.70 °C1018.40 hPa89.00 %-8.40 °C 
00:15:00-7.10 °C1018.60 hPa89.00 %-8.80 °C 
00:00:00-7.10 °C1018.90 hPa89.00 %-8.80 °C 

Permanenter Link zu dieser Seite: Wetter im Erzgebirge am 23.03.2015
Performance-Info: Die Erstellung der Seite / Statistik(en) / Tabelle(n) erforderte 5 Datenbankserver-Abfrage(n) und dauerte 103 Millisekunden. (Dieser Messwert ist von der Gesamt-Auslastung des Servers abhängig.)
Erzgebirge - Wetter | Erzgebirge - Wetter (Mobilgeräte) | Komplette Klimadatenbank